This is the latest recevied weather packets stored in our database for station/object EA1GGY-1. If no packets are shown the sender has not sent any weather packets the latest 10 day(s).
| Time | Temp. | Humidity | Pressure | Rain* | Wind** | Luminosity | Snow |
|---|---|---|---|---|---|---|---|
| 1777820967 | 11.67° C | 76% | 1007.4 hPa | - | - | - | - |
| 1777820364 | 11.11° C | 77% | 1007.4 hPa | - | - | - | - |
| 1777819764 | 11.11° C | 76% | 1007.1 hPa | - | - | - | - |
| 1777819162 | 11.11° C | 76% | 1007.1 hPa | - | - | - | - |
| 1777818562 | 11.67° C | 76% | 1007.2 hPa | - | - | - | - |
| 1777817961 | 11.67° C | 72% | 1007 hPa | - | - | - | - |
| 1777817360 | 13.33° C | 67% | 1006.6 hPa | - | - | - | - |
| 1777816759 | 13.89° C | 65% | 1006.5 hPa | - | - | - | - |
| 1777816158 | 13.89° C | 67% | 1006.7 hPa | - | - | - | - |
| 1777815558 | 14.44° C | 64% | 1006.8 hPa | - | - | - | - |
| 1777814957 | 13.33° C | 66% | 1006.9 hPa | - | - | - | - |
| 1777814356 | 13.33° C | 68% | 1007 hPa | - | - | - | - |
| 1777813755 | 13.33° C | 67% | 1007.2 hPa | - | - | - | - |
| 1777813154 | 12.22° C | 68% | 1007.4 hPa | - | - | - | - |
| 1777812554 | 12.22° C | 72% | 1007.4 hPa | - | - | - | - |
| 1777811953 | 11.67° C | 76% | 1007.5 hPa | - | - | - | - |
| 1777811352 | 11.67° C | 73% | 1007.5 hPa | - | - | - | - |
| 1777810751 | 11.67° C | 72% | 1007.6 hPa | - | - | - | - |
| 1777810150 | 12.22° C | 72% | 1007.6 hPa | - | - | - | - |
| 1777809550 | 12.22° C | 71% | 1007.6 hPa | - | - | - | - |
| 1777808950 | 12.22° C | 69% | 1007.8 hPa | - | - | - | - |
| 1777808348 | 12.22° C | 69% | 1007.8 hPa | - | - | - | - |
| 1777807747 | 12.22° C | 71% | 1007.9 hPa | - | - | - | - |
| 1777807150 | 12.78° C | 69% | 1007.9 hPa | - | - | - | - |
| 1777806547 | 14.44° C | 60% | 1008 hPa | - | - | - | - |
* Rain since midnight (hover to see other rain measurements)
** Current wind speed in m/s (hover to see current wind gust speed)